sensor_id;sensor_type;location;lat;lon;timestamp;P1;durP1;ratioP1;P2;durP2;ratioP2
59008;SDS011;44794;42.652;23.318;2022-08-19T00:00:47;10.00;;;8.88;;
59008;SDS011;44794;42.652;23.318;2022-08-19T00:03:15;13.13;;;9.13;;
59008;SDS011;44794;42.652;23.318;2022-08-19T00:05:40;12.38;;;8.80;;
59008;SDS011;44794;42.652;23.318;2022-08-19T00:08:06;10.93;;;8.52;;
59008;SDS011;44794;42.652;23.318;2022-08-19T00:10:32;13.18;;;8.90;;
59008;SDS011;44794;42.652;23.318;2022-08-19T00:12:58;10.68;;;8.45;;
59008;SDS011;44794;42.652;23.318;2022-08-19T00:15:24;13.73;;;8.82;;
59008;SDS011;44794;42.652;23.318;2022-08-19T00:17:50;12.35;;;8.57;;
59008;SDS011;44794;42.652;23.318;2022-08-19T00:20:17;12.68;;;8.55;;
59008;SDS011;44794;42.652;23.318;2022-08-19T00:22:44;11.07;;;8.43;;
59008;SDS011;44794;42.652;23.318;2022-08-19T00:25:11;12.70;;;8.80;;
59008;SDS011;44794;42.652;23.318;2022-08-19T00:27:36;11.05;;;8.68;;
59008;SDS011;44794;42.652;23.318;2022-08-19T00:30:03;10.05;;;8.95;;
59008;SDS011;44794;42.652;23.318;2022-08-19T00:32:29;11.05;;;9.32;;
59008;SDS011;44794;42.652;23.318;2022-08-19T00:34:55;12.00;;;8.88;;
59008;SDS011;44794;42.652;23.318;2022-08-19T00:37:21;10.82;;;9.15;;
59008;SDS011;44794;42.652;23.318;2022-08-19T00:39:48;10.13;;;8.63;;
59008;SDS011;44794;42.652;23.318;2022-08-19T00:42:14;17.23;;;8.95;;
59008;SDS011;44794;42.652;23.318;2022-08-19T00:44:40;10.98;;;9.48;;
59008;SDS011;44794;42.652;23.318;2022-08-19T00:47:06;11.32;;;8.88;;
59008;SDS011;44794;42.652;23.318;2022-08-19T00:49:38;12.05;;;9.38;;
59008;SDS011;44794;42.652;23.318;2022-08-19T00:52:14;12.52;;;9.50;;
59008;SDS011;44794;42.652;23.318;2022-08-19T00:54:43;12.55;;;9.43;;
59008;SDS011;44794;42.652;23.318;2022-08-19T00:57:13;11.23;;;9.82;;
59008;SDS011;44794;42.652;23.318;2022-08-19T00:59:42;13.15;;;9.63;;
59008;SDS011;44794;42.652;23.318;2022-08-19T01:02:11;11.60;;;9.95;;
59008;SDS011;44794;42.652;23.318;2022-08-19T01:04:37;12.93;;;9.80;;
59008;SDS011;44794;42.652;23.318;2022-08-19T01:07:03;12.82;;;9.73;;
59008;SDS011;44794;42.652;23.318;2022-08-19T01:09:29;13.05;;;9.55;;
59008;SDS011;44794;42.652;23.318;2022-08-19T01:11:54;11.10;;;9.60;;
59008;SDS011;44794;42.652;23.318;2022-08-19T01:14:21;12.00;;;10.18;;
59008;SDS011;44794;42.652;23.318;2022-08-19T01:16:47;13.52;;;10.27;;
59008;SDS011;44794;42.652;23.318;2022-08-19T01:19:16;11.98;;;9.85;;
59008;SDS011;44794;42.652;23.318;2022-08-19T01:21:59;12.73;;;9.80;;
59008;SDS011;44794;42.652;23.318;2022-08-19T01:24:28;13.65;;;9.88;;
59008;SDS011;44794;42.652;23.318;2022-08-19T01:26:55;13.73;;;9.82;;
59008;SDS011;44794;42.652;23.318;2022-08-19T01:29:21;12.38;;;10.15;;
59008;SDS011;44794;42.652;23.318;2022-08-19T01:31:46;13.32;;;10.05;;
59008;SDS011;44794;42.652;23.318;2022-08-19T01:34:12;11.65;;;10.45;;
59008;SDS011;44794;42.652;23.318;2022-08-19T01:36:41;12.23;;;10.50;;
59008;SDS011;44794;42.652;23.318;2022-08-19T01:39:11;11.77;;;10.57;;
59008;SDS011;44794;42.652;23.318;2022-08-19T01:41:39;11.93;;;10.65;;
59008;SDS011;44794;42.652;23.318;2022-08-19T01:44:05;14.77;;;11.20;;
59008;SDS011;44794;42.652;23.318;2022-08-19T01:46:33;15.55;;;10.77;;
59008;SDS011;44794;42.652;23.318;2022-08-19T01:49:00;15.70;;;11.88;;
59008;SDS011;44794;42.652;23.318;2022-08-19T01:51:26;16.30;;;12.18;;
59008;SDS011;44794;42.652;23.318;2022-08-19T01:53:53;18.55;;;12.30;;
59008;SDS011;44794;42.652;23.318;2022-08-19T01:56:18;20.23;;;11.98;;
59008;SDS011;44794;42.652;23.318;2022-08-19T01:58:47;16.08;;;11.80;;
59008;SDS011;44794;42.652;23.318;2022-08-19T02:01:17;13.43;;;10.88;;
59008;SDS011;44794;42.652;23.318;2022-08-19T02:03:42;15.88;;;11.95;;
59008;SDS011;44794;42.652;23.318;2022-08-19T02:06:08;13.75;;;11.82;;
59008;SDS011;44794;42.652;23.318;2022-08-19T02:08:35;13.40;;;11.23;;
59008;SDS011;44794;42.652;23.318;2022-08-19T02:11:02;15.57;;;11.70;;
59008;SDS011;44794;42.652;23.318;2022-08-19T02:13:29;13.38;;;10.93;;
59008;SDS011;44794;42.652;23.318;2022-08-19T02:15:55;13.23;;;11.45;;
59008;SDS011;44794;42.652;23.318;2022-08-19T02:18:20;13.45;;;11.55;;
59008;SDS011;44794;42.652;23.318;2022-08-19T02:20:46;14.95;;;11.48;;
59008;SDS011;44794;42.652;23.318;2022-08-19T02:23:13;14.88;;;11.70;;
59008;SDS011;44794;42.652;23.318;2022-08-19T02:25:40;14.60;;;11.00;;
59008;SDS011;44794;42.652;23.318;2022-08-19T02:28:06;15.80;;;11.35;;
59008;SDS011;44794;42.652;23.318;2022-08-19T02:30:32;13.98;;;11.48;;
59008;SDS011;44794;42.652;23.318;2022-08-19T02:32:57;13.18;;;11.25;;
59008;SDS011;44794;42.652;23.318;2022-08-19T02:35:23;13.82;;;11.02;;
59008;SDS011;44794;42.652;23.318;2022-08-19T02:37:49;14.73;;;11.00;;
59008;SDS011;44794;42.652;23.318;2022-08-19T02:40:33;13.57;;;10.75;;
59008;SDS011;44794;42.652;23.318;2022-08-19T02:43:00;15.80;;;11.80;;
59008;SDS011;44794;42.652;23.318;2022-08-19T02:45:26;13.40;;;10.95;;
59008;SDS011;44794;42.652;23.318;2022-08-19T02:47:51;12.88;;;11.43;;
59008;SDS011;44794;42.652;23.318;2022-08-19T02:50:17;18.83;;;11.07;;
59008;SDS011;44794;42.652;23.318;2022-08-19T02:52:43;12.40;;;11.02;;
59008;SDS011;44794;42.652;23.318;2022-08-19T02:55:09;13.63;;;11.10;;
59008;SDS011;44794;42.652;23.318;2022-08-19T02:57:35;14.30;;;11.27;;
59008;SDS011;44794;42.652;23.318;2022-08-19T03:00:00;16.98;;;11.60;;
59008;SDS011;44794;42.652;23.318;2022-08-19T03:02:28;16.52;;;12.02;;
59008;SDS011;44794;42.652;23.318;2022-08-19T03:04:55;14.85;;;12.25;;
59008;SDS011;44794;42.652;23.318;2022-08-19T03:07:20;16.83;;;11.93;;
59008;SDS011;44794;42.652;23.318;2022-08-19T03:09:46;14.38;;;11.80;;
59008;SDS011;44794;42.652;23.318;2022-08-19T03:12:11;16.33;;;12.43;;
59008;SDS011;44794;42.652;23.318;2022-08-19T03:14:37;14.88;;;11.98;;
59008;SDS011;44794;42.652;23.318;2022-08-19T03:17:03;17.98;;;12.52;;
59008;SDS011;44794;42.652;23.318;2022-08-19T03:19:29;19.75;;;13.43;;
59008;SDS011;44794;42.652;23.318;2022-08-19T03:21:56;15.77;;;12.88;;
59008;SDS011;44794;42.652;23.318;2022-08-19T03:24:22;16.73;;;13.45;;
59008;SDS011;44794;42.652;23.318;2022-08-19T03:26:49;16.20;;;12.35;;
59008;SDS011;44794;42.652;23.318;2022-08-19T03:29:21;15.32;;;12.65;;
59008;SDS011;44794;42.652;23.318;2022-08-19T03:31:47;15.30;;;12.75;;
59008;SDS011;44794;42.652;23.318;2022-08-19T03:34:13;15.90;;;12.80;;
59008;SDS011;44794;42.652;23.318;2022-08-19T03:36:42;15.18;;;12.57;;
59008;SDS011;44794;42.652;23.318;2022-08-19T03:39:07;17.95;;;13.38;;
59008;SDS011;44794;42.652;23.318;2022-08-19T03:41:38;16.50;;;13.57;;
59008;SDS011;44794;42.652;23.318;2022-08-19T03:44:06;14.38;;;12.18;;
59008;SDS011;44794;42.652;23.318;2022-08-19T03:46:33;15.68;;;12.98;;
59008;SDS011;44794;42.652;23.318;2022-08-19T03:49:00;16.23;;;13.07;;
59008;SDS011;44794;42.652;23.318;2022-08-19T03:51:34;17.77;;;13.00;;
59008;SDS011;44794;42.652;23.318;2022-08-19T03:54:05;18.23;;;12.80;;
59008;SDS011;44794;42.652;23.318;2022-08-19T03:56:33;20.03;;;13.23;;
59008;SDS011;44794;42.652;23.318;2022-08-19T03:59:00;20.00;;;14.25;;
59008;SDS011;44794;42.652;23.318;2022-08-19T04:01:27;23.50;;;13.45;;
59008;SDS011;44794;42.652;23.318;2022-08-19T04:03:54;17.48;;;12.10;;
59008;SDS011;44794;42.652;23.318;2022-08-19T04:06:54;19.55;;;11.60;;
59008;SDS011;44794;42.652;23.318;2022-08-19T04:09:13;14.32;;;11.63;;
59008;SDS011;44794;42.652;23.318;2022-08-19T04:11:40;21.58;;;11.68;;
59008;SDS011;44794;42.652;23.318;2022-08-19T04:14:09;16.08;;;11.25;;
59008;SDS011;44794;42.652;23.318;2022-08-19T04:16:36;19.92;;;11.68;;
59008;SDS011;44794;42.652;23.318;2022-08-19T04:19:02;21.70;;;12.40;;
59008;SDS011;44794;42.652;23.318;2022-08-19T04:21:30;22.50;;;13.95;;
59008;SDS011;44794;42.652;23.318;2022-08-19T04:23:56;18.10;;;12.30;;
59008;SDS011;44794;42.652;23.318;2022-08-19T04:26:26;19.58;;;11.65;;
59008;SDS011;44794;42.652;23.318;2022-08-19T04:28:57;16.40;;;11.50;;
59008;SDS011;44794;42.652;23.318;2022-08-19T04:31:25;16.48;;;12.15;;
59008;SDS011;44794;42.652;23.318;2022-08-19T04:33:55;16.85;;;11.48;;
59008;SDS011;44794;42.652;23.318;2022-08-19T04:36:24;20.00;;;11.65;;
59008;SDS011;44794;42.652;23.318;2022-08-19T04:38:55;20.48;;;11.63;;
59008;SDS011;44794;42.652;23.318;2022-08-19T04:41:23;24.50;;;11.82;;
59008;SDS011;44794;42.652;23.318;2022-08-19T04:44:07;21.77;;;11.15;;
59008;SDS011;44794;42.652;23.318;2022-08-19T04:46:33;21.67;;;11.45;;
59008;SDS011;44794;42.652;23.318;2022-08-19T04:49:00;21.33;;;12.02;;
59008;SDS011;44794;42.652;23.318;2022-08-19T04:51:27;18.75;;;12.13;;
59008;SDS011;44794;42.652;23.318;2022-08-19T04:53:53;22.58;;;12.15;;
59008;SDS011;44794;42.652;23.318;2022-08-19T04:56:19;19.67;;;11.68;;
59008;SDS011;44794;42.652;23.318;2022-08-19T04:58:47;17.27;;;11.90;;
59008;SDS011;44794;42.652;23.318;2022-08-19T05:01:19;21.67;;;12.07;;
59008;SDS011;44794;42.652;23.318;2022-08-19T05:03:47;20.52;;;12.52;;
59008;SDS011;44794;42.652;23.318;2022-08-19T05:06:14;18.20;;;12.65;;
59008;SDS011;44794;42.652;23.318;2022-08-19T05:08:40;19.52;;;12.50;;
59008;SDS011;44794;42.652;23.318;2022-08-19T05:11:16;21.30;;;13.05;;
59008;SDS011;44794;42.652;23.318;2022-08-19T05:13:45;26.20;;;13.05;;
59008;SDS011;44794;42.652;23.318;2022-08-19T05:16:12;17.52;;;12.40;;
59008;SDS011;44794;42.652;23.318;2022-08-19T05:18:39;20.77;;;12.50;;
59008;SDS011;44794;42.652;23.318;2022-08-19T05:21:23;26.48;;;13.20;;
59008;SDS011;44794;42.652;23.318;2022-08-19T05:24:08;25.95;;;13.52;;
59008;SDS011;44794;42.652;23.318;2022-08-19T05:26:37;99.78;;;17.35;;
59008;SDS011;44794;42.652;23.318;2022-08-19T05:29:04;22.00;;;12.90;;
59008;SDS011;44794;42.652;23.318;2022-08-19T05:31:30;20.08;;;11.82;;
59008;SDS011;44794;42.652;23.318;2022-08-19T05:33:56;22.13;;;12.57;;
59008;SDS011;44794;42.652;23.318;2022-08-19T05:36:24;19.48;;;12.15;;
59008;SDS011;44794;42.652;23.318;2022-08-19T05:38:54;19.48;;;12.70;;
59008;SDS011;44794;42.652;23.318;2022-08-19T05:41:20;24.15;;;12.63;;
59008;SDS011;44794;42.652;23.318;2022-08-19T05:43:52;31.42;;;12.40;;
59008;SDS011;44794;42.652;23.318;2022-08-19T05:46:18;21.98;;;11.20;;
59008;SDS011;44794;42.652;23.318;2022-08-19T05:48:44;20.40;;;11.02;;
59008;SDS011;44794;42.652;23.318;2022-08-19T05:51:10;22.27;;;11.32;;
59008;SDS011;44794;42.652;23.318;2022-08-19T05:53:36;31.75;;;11.18;;
59008;SDS011;44794;42.652;23.318;2022-08-19T05:56:05;23.63;;;10.57;;
59008;SDS011;44794;42.652;23.318;2022-08-19T05:58:32;17.45;;;9.77;;
59008;SDS011;44794;42.652;23.318;2022-08-19T06:00:58;14.00;;;8.77;;
59008;SDS011;44794;42.652;23.318;2022-08-19T06:03:29;20.35;;;9.10;;
59008;SDS011;44794;42.652;23.318;2022-08-19T06:05:58;14.57;;;7.82;;
59008;SDS011;44794;42.652;23.318;2022-08-19T06:08:24;13.38;;;7.72;;
59008;SDS011;44794;42.652;23.318;2022-08-19T06:10:53;23.20;;;6.65;;
59008;SDS011;44794;42.652;23.318;2022-08-19T06:13:19;9.55;;;7.10;;
59008;SDS011;44794;42.652;23.318;2022-08-19T06:15:45;15.07;;;7.55;;
59008;SDS011;44794;42.652;23.318;2022-08-19T06:18:11;13.25;;;8.30;;
59008;SDS011;44794;42.652;23.318;2022-08-19T06:20:38;9.18;;;7.78;;
59008;SDS011;44794;42.652;23.318;2022-08-19T06:23:04;12.88;;;7.80;;
59008;SDS011;44794;42.652;23.318;2022-08-19T06:25:29;18.02;;;8.23;;
59008;SDS011;44794;42.652;23.318;2022-08-19T06:27:55;15.40;;;8.27;;
59008;SDS011;44794;42.652;23.318;2022-08-19T06:30:20;14.77;;;8.38;;
59008;SDS011;44794;42.652;23.318;2022-08-19T06:32:46;10.45;;;8.35;;
59008;SDS011;44794;42.652;23.318;2022-08-19T06:35:11;10.00;;;7.75;;
59008;SDS011;44794;42.652;23.318;2022-08-19T06:37:39;10.27;;;7.60;;
59008;SDS011;44794;42.652;23.318;2022-08-19T06:40:06;13.77;;;7.85;;
59008;SDS011;44794;42.652;23.318;2022-08-19T06:42:34;13.27;;;8.02;;
59008;SDS011;44794;42.652;23.318;2022-08-19T06:45:00;13.98;;;8.02;;
59008;SDS011;44794;42.652;23.318;2022-08-19T06:47:29;13.43;;;7.55;;
59008;SDS011;44794;42.652;23.318;2022-08-19T06:49:56;13.60;;;8.68;;
59008;SDS011;44794;42.652;23.318;2022-08-19T06:52:26;13.68;;;8.77;;
59008;SDS011;44794;42.652;23.318;2022-08-19T06:54:52;14.73;;;8.98;;
59008;SDS011;44794;42.652;23.318;2022-08-19T06:57:19;20.15;;;8.82;;
59008;SDS011;44794;42.652;23.318;2022-08-19T06:59:44;11.88;;;8.82;;
59008;SDS011;44794;42.652;23.318;2022-08-19T07:02:10;13.02;;;8.00;;
59008;SDS011;44794;42.652;23.318;2022-08-19T07:04:35;12.18;;;8.50;;
59008;SDS011;44794;42.652;23.318;2022-08-19T07:07:04;13.82;;;8.27;;
59008;SDS011;44794;42.652;23.318;2022-08-19T07:09:33;11.40;;;8.35;;
59008;SDS011;44794;42.652;23.318;2022-08-19T07:11:59;13.35;;;8.40;;
59008;SDS011;44794;42.652;23.318;2022-08-19T07:14:26;12.85;;;8.50;;
59008;SDS011;44794;42.652;23.318;2022-08-19T07:16:53;15.55;;;8.60;;
59008;SDS011;44794;42.652;23.318;2022-08-19T07:19:21;11.82;;;9.25;;
59008;SDS011;44794;42.652;23.318;2022-08-19T07:21:48;18.63;;;8.45;;
59008;SDS011;44794;42.652;23.318;2022-08-19T07:24:17;11.10;;;9.00;;
59008;SDS011;44794;42.652;23.318;2022-08-19T07:26:44;12.75;;;9.38;;
59008;SDS011;44794;42.652;23.318;2022-08-19T07:29:10;17.35;;;9.27;;
59008;SDS011;44794;42.652;23.318;2022-08-19T07:31:36;20.83;;;9.80;;
59008;SDS011;44794;42.652;23.318;2022-08-19T07:34:03;11.75;;;9.27;;
59008;SDS011;44794;42.652;23.318;2022-08-19T07:36:34;14.30;;;9.02;;
59008;SDS011;44794;42.652;23.318;2022-08-19T07:39:04;15.05;;;8.93;;
59008;SDS011;44794;42.652;23.318;2022-08-19T07:43:58;18.77;;;10.07;;
59008;SDS011;44794;42.652;23.318;2022-08-19T07:46:28;15.80;;;9.55;;
59008;SDS011;44794;42.652;23.318;2022-08-19T07:48:58;19.60;;;10.15;;
59008;SDS011;44794;42.652;23.318;2022-08-19T07:51:25;14.93;;;8.55;;
59008;SDS011;44794;42.652;23.318;2022-08-19T07:53:51;14.50;;;9.98;;
59008;SDS011;44794;42.652;23.318;2022-08-19T07:56:18;11.68;;;8.82;;
59008;SDS011;44794;42.652;23.318;2022-08-19T07:58:45;15.77;;;9.35;;
59008;SDS011;44794;42.652;23.318;2022-08-19T08:01:13;15.57;;;9.23;;
59008;SDS011;44794;42.652;23.318;2022-08-19T08:03:43;13.77;;;8.88;;
59008;SDS011;44794;42.652;23.318;2022-08-19T08:06:28;14.02;;;8.70;;
59008;SDS011;44794;42.652;23.318;2022-08-19T08:09:13;13.88;;;9.32;;
59008;SDS011;44794;42.652;23.318;2022-08-19T08:11:57;12.88;;;8.82;;
59008;SDS011;44794;42.652;23.318;2022-08-19T08:14:25;12.02;;;8.93;;
59008;SDS011;44794;42.652;23.318;2022-08-19T08:17:12;15.18;;;9.00;;
59008;SDS011;44794;42.652;23.318;2022-08-19T08:19:39;18.23;;;8.77;;
59008;SDS011;44794;42.652;23.318;2022-08-19T08:22:08;17.13;;;9.35;;
59008;SDS011;44794;42.652;23.318;2022-08-19T08:24:54;15.40;;;9.50;;
59008;SDS011;44794;42.652;23.318;2022-08-19T08:27:23;17.67;;;9.20;;
59008;SDS011;44794;42.652;23.318;2022-08-19T08:29:49;11.82;;;8.52;;
59008;SDS011;44794;42.652;23.318;2022-08-19T08:32:14;16.15;;;8.82;;
59008;SDS011;44794;42.652;23.318;2022-08-19T08:34:40;12.57;;;8.23;;
59008;SDS011;44794;42.652;23.318;2022-08-19T08:37:05;12.70;;;8.43;;
59008;SDS011;44794;42.652;23.318;2022-08-19T08:39:30;25.73;;;9.50;;
59008;SDS011;44794;42.652;23.318;2022-08-19T08:44:49;14.27;;;8.05;;
59008;SDS011;44794;42.652;23.318;2022-08-19T08:47:22;13.77;;;7.38;;
59008;SDS011;44794;42.652;23.318;2022-08-19T08:49:56;10.35;;;7.47;;
59008;SDS011;44794;42.652;23.318;2022-08-19T08:55:00;12.02;;;7.78;;
59008;SDS011;44794;42.652;23.318;2022-08-19T08:57:32;11.05;;;7.30;;
59008;SDS011;44794;42.652;23.318;2022-08-19T09:00:04;8.95;;;6.50;;
59008;SDS011;44794;42.652;23.318;2022-08-19T09:02:32;9.40;;;6.70;;
59008;SDS011;44794;42.652;23.318;2022-08-19T09:04:57;8.45;;;6.45;;
59008;SDS011;44794;42.652;23.318;2022-08-19T09:10:07;11.07;;;7.05;;
59008;SDS011;44794;42.652;23.318;2022-08-19T09:15:38;17.63;;;7.63;;
59008;SDS011;44794;42.652;23.318;2022-08-19T09:18:09;8.68;;;6.32;;
59008;SDS011;44794;42.652;23.318;2022-08-19T09:20:35;13.13;;;6.40;;
59008;SDS011;44794;42.652;23.318;2022-08-19T09:23:01;7.88;;;5.82;;
59008;SDS011;44794;42.652;23.318;2022-08-19T09:25:27;8.27;;;5.22;;
59008;SDS011;44794;42.652;23.318;2022-08-19T09:27:53;8.30;;;5.63;;
59008;SDS011;44794;42.652;23.318;2022-08-19T09:30:27;8.13;;;5.13;;
59008;SDS011;44794;42.652;23.318;2022-08-19T09:32:54;7.80;;;5.90;;
59008;SDS011;44794;42.652;23.318;2022-08-19T09:35:20;10.05;;;6.15;;
59008;SDS011;44794;42.652;23.318;2022-08-19T09:37:48;9.13;;;5.80;;
59008;SDS011;44794;42.652;23.318;2022-08-19T09:40:14;6.53;;;5.57;;
59008;SDS011;44794;42.652;23.318;2022-08-19T09:42:42;10.15;;;5.85;;
59008;SDS011;44794;42.652;23.318;2022-08-19T09:45:11;7.50;;;5.80;;
59008;SDS011;44794;42.652;23.318;2022-08-19T09:47:37;9.98;;;5.65;;
59008;SDS011;44794;42.652;23.318;2022-08-19T09:50:07;7.70;;;5.55;;
59008;SDS011;44794;42.652;23.318;2022-08-19T09:52:34;8.60;;;5.88;;
59008;SDS011;44794;42.652;23.318;2022-08-19T09:55:03;9.07;;;5.55;;
59008;SDS011;44794;42.652;23.318;2022-08-19T09:57:29;10.30;;;5.40;;
59008;SDS011;44794;42.652;23.318;2022-08-19T09:59:55;9.45;;;5.78;;
59008;SDS011;44794;42.652;23.318;2022-08-19T10:02:20;12.25;;;5.57;;
59008;SDS011;44794;42.652;23.318;2022-08-19T10:04:46;8.07;;;5.13;;
59008;SDS011;44794;42.652;23.318;2022-08-19T10:07:30;6.70;;;5.72;;
59008;SDS011;44794;42.652;23.318;2022-08-19T10:09:55;8.93;;;5.32;;
59008;SDS011;44794;42.652;23.318;2022-08-19T10:12:21;9.52;;;5.75;;
59008;SDS011;44794;42.652;23.318;2022-08-19T10:14:47;9.13;;;5.90;;
59008;SDS011;44794;42.652;23.318;2022-08-19T10:17:13;11.60;;;6.25;;
59008;SDS011;44794;42.652;23.318;2022-08-19T10:19:39;13.52;;;6.38;;
59008;SDS011;44794;42.652;23.318;2022-08-19T10:22:05;11.75;;;5.90;;
59008;SDS011;44794;42.652;23.318;2022-08-19T10:24:32;12.23;;;5.82;;
59008;SDS011;44794;42.652;23.318;2022-08-19T10:26:59;13.48;;;6.03;;
59008;SDS011;44794;42.652;23.318;2022-08-19T10:29:28;6.90;;;6.20;;
59008;SDS011;44794;42.652;23.318;2022-08-19T10:31:55;7.97;;;6.03;;
59008;SDS011;44794;42.652;23.318;2022-08-19T10:34:22;10.20;;;6.00;;
59008;SDS011;44794;42.652;23.318;2022-08-19T10:36:49;11.15;;;6.53;;
59008;SDS011;44794;42.652;23.318;2022-08-19T10:39:14;6.57;;;5.40;;
59008;SDS011;44794;42.652;23.318;2022-08-19T10:41:40;9.93;;;6.30;;
59008;SDS011;44794;42.652;23.318;2022-08-19T10:44:09;23.52;;;6.63;;
59008;SDS011;44794;42.652;23.318;2022-08-19T10:46:38;10.38;;;5.95;;
59008;SDS011;44794;42.652;23.318;2022-08-19T10:49:08;15.77;;;6.38;;
59008;SDS011;44794;42.652;23.318;2022-08-19T10:51:35;10.40;;;6.25;;
59008;SDS011;44794;42.652;23.318;2022-08-19T10:54:19;8.85;;;5.68;;
59008;SDS011;44794;42.652;23.318;2022-08-19T10:56:44;7.45;;;5.85;;
59008;SDS011;44794;42.652;23.318;2022-08-19T10:59:17;7.88;;;6.13;;
59008;SDS011;44794;42.652;23.318;2022-08-19T11:01:47;8.88;;;6.00;;
59008;SDS011;44794;42.652;23.318;2022-08-19T11:04:13;8.50;;;6.20;;
59008;SDS011;44794;42.652;23.318;2022-08-19T11:06:42;8.95;;;5.78;;
59008;SDS011;44794;42.652;23.318;2022-08-19T11:09:13;8.35;;;6.10;;
59008;SDS011;44794;42.652;23.318;2022-08-19T11:11:40;12.52;;;5.75;;
59008;SDS011;44794;42.652;23.318;2022-08-19T11:14:07;9.43;;;6.30;;
59008;SDS011;44794;42.652;23.318;2022-08-19T11:16:34;9.43;;;5.90;;
59008;SDS011;44794;42.652;23.318;2022-08-19T11:19:00;6.40;;;5.80;;
59008;SDS011;44794;42.652;23.318;2022-08-19T11:21:29;11.07;;;6.30;;
59008;SDS011;44794;42.652;23.318;2022-08-19T11:23:58;10.75;;;6.50;;
59008;SDS011;44794;42.652;23.318;2022-08-19T11:26:26;7.32;;;6.03;;
59008;SDS011;44794;42.652;23.318;2022-08-19T11:28:52;7.97;;;5.82;;
59008;SDS011;44794;42.652;23.318;2022-08-19T11:31:32;6.80;;;6.07;;
59008;SDS011;44794;42.652;23.318;2022-08-19T11:34:00;7.40;;;6.32;;
59008;SDS011;44794;42.652;23.318;2022-08-19T11:36:28;10.93;;;6.22;;
59008;SDS011;44794;42.652;23.318;2022-08-19T11:38:54;11.25;;;6.05;;
59008;SDS011;44794;42.652;23.318;2022-08-19T11:41:20;7.82;;;6.15;;
59008;SDS011;44794;42.652;23.318;2022-08-19T11:43:48;9.05;;;6.18;;
59008;SDS011;44794;42.652;23.318;2022-08-19T11:46:15;8.68;;;6.88;;
59008;SDS011;44794;42.652;23.318;2022-08-19T11:48:41;9.00;;;6.68;;
59008;SDS011;44794;42.652;23.318;2022-08-19T11:51:08;8.27;;;7.32;;
59008;SDS011;44794;42.652;23.318;2022-08-19T11:53:37;11.48;;;6.50;;
59008;SDS011;44794;42.652;23.318;2022-08-19T11:56:03;15.85;;;6.60;;
59008;SDS011;44794;42.652;23.318;2022-08-19T11:58:30;7.35;;;6.55;;
59008;SDS011;44794;42.652;23.318;2022-08-19T12:00:55;6.72;;;6.13;;
59008;SDS011;44794;42.652;23.318;2022-08-19T12:03:21;15.95;;;6.65;;
59008;SDS011;44794;42.652;23.318;2022-08-19T12:05:47;7.40;;;6.63;;
59008;SDS011;44794;42.652;23.318;2022-08-19T12:08:13;11.20;;;6.32;;
59008;SDS011;44794;42.652;23.318;2022-08-19T12:10:40;9.75;;;6.47;;
59008;SDS011;44794;42.652;23.318;2022-08-19T12:13:07;6.78;;;6.07;;
59008;SDS011;44794;42.652;23.318;2022-08-19T12:15:37;12.75;;;6.85;;
59008;SDS011;44794;42.652;23.318;2022-08-19T12:18:06;8.88;;;6.60;;
59008;SDS011;44794;42.652;23.318;2022-08-19T12:20:37;7.68;;;6.40;;
59008;SDS011;44794;42.652;23.318;2022-08-19T12:23:04;11.57;;;6.20;;
59008;SDS011;44794;42.652;23.318;2022-08-19T12:25:31;9.18;;;6.07;;
59008;SDS011;44794;42.652;23.318;2022-08-19T12:27:56;9.18;;;6.10;;
59008;SDS011;44794;42.652;23.318;2022-08-19T12:30:22;8.25;;;6.43;;
59008;SDS011;44794;42.652;23.318;2022-08-19T12:32:48;10.13;;;6.72;;
59008;SDS011;44794;42.652;23.318;2022-08-19T12:35:13;11.82;;;6.57;;
59008;SDS011;44794;42.652;23.318;2022-08-19T12:37:39;12.32;;;7.05;;
59008;SDS011;44794;42.652;23.318;2022-08-19T12:40:09;8.90;;;6.45;;
59008;SDS011;44794;42.652;23.318;2022-08-19T12:42:37;8.23;;;6.57;;
59008;SDS011;44794;42.652;23.318;2022-08-19T12:45:06;8.25;;;6.50;;
59008;SDS011;44794;42.652;23.318;2022-08-19T12:47:32;8.95;;;6.60;;
59008;SDS011;44794;42.652;23.318;2022-08-19T12:49:58;10.25;;;6.57;;
59008;SDS011;44794;42.652;23.318;2022-08-19T12:52:24;11.35;;;9.15;;
59008;SDS011;44794;42.652;23.318;2022-08-19T12:54:54;15.13;;;9.52;;
59008;SDS011;44794;42.652;23.318;2022-08-19T12:57:22;15.20;;;8.95;;
59008;SDS011;44794;42.652;23.318;2022-08-19T12:59:51;10.88;;;8.20;;
59008;SDS011;44794;42.652;23.318;2022-08-19T13:02:20;8.20;;;7.40;;
59008;SDS011;44794;42.652;23.318;2022-08-19T13:04:47;11.18;;;7.82;;
59008;SDS011;44794;42.652;23.318;2022-08-19T13:07:12;7.82;;;6.50;;
59008;SDS011;44794;42.652;23.318;2022-08-19T13:09:38;10.93;;;6.35;;
59008;SDS011;44794;42.652;23.318;2022-08-19T13:12:06;10.15;;;6.57;;
59008;SDS011;44794;42.652;23.318;2022-08-19T13:14:35;11.35;;;6.03;;
59008;SDS011;44794;42.652;23.318;2022-08-19T13:17:00;7.18;;;6.32;;
59008;SDS011;44794;42.652;23.318;2022-08-19T13:19:26;8.15;;;6.15;;
59008;SDS011;44794;42.652;23.318;2022-08-19T13:21:52;8.73;;;6.45;;
59008;SDS011;44794;42.652;23.318;2022-08-19T13:24:20;9.10;;;6.40;;
59008;SDS011;44794;42.652;23.318;2022-08-19T13:26:46;10.55;;;6.28;;
59008;SDS011;44794;42.652;23.318;2022-08-19T13:29:11;12.68;;;6.45;;
59008;SDS011;44794;42.652;23.318;2022-08-19T13:31:55;8.65;;;6.45;;
59008;SDS011;44794;42.652;23.318;2022-08-19T13:34:39;9.90;;;6.43;;
59008;SDS011;44794;42.652;23.318;2022-08-19T13:37:05;9.95;;;6.43;;
59008;SDS011;44794;42.652;23.318;2022-08-19T13:39:31;13.63;;;7.20;;
59008;SDS011;44794;42.652;23.318;2022-08-19T13:41:57;14.23;;;6.90;;
59008;SDS011;44794;42.652;23.318;2022-08-19T13:44:25;9.77;;;6.80;;
59008;SDS011;44794;42.652;23.318;2022-08-19T13:46:51;11.23;;;6.50;;
59008;SDS011;44794;42.652;23.318;2022-08-19T13:49:17;8.75;;;6.85;;
59008;SDS011;44794;42.652;23.318;2022-08-19T13:51:45;7.43;;;6.47;;
59008;SDS011;44794;42.652;23.318;2022-08-19T13:54:11;11.05;;;6.55;;
59008;SDS011;44794;42.652;23.318;2022-08-19T13:56:41;9.30;;;6.80;;
59008;SDS011;44794;42.652;23.318;2022-08-19T13:59:08;10.63;;;6.28;;
59008;SDS011;44794;42.652;23.318;2022-08-19T14:01:34;13.80;;;6.95;;
59008;SDS011;44794;42.652;23.318;2022-08-19T14:04:00;16.77;;;7.00;;
59008;SDS011;44794;42.652;23.318;2022-08-19T14:06:26;8.05;;;6.30;;
59008;SDS011;44794;42.652;23.318;2022-08-19T14:08:52;22.42;;;7.00;;
59008;SDS011;44794;42.652;23.318;2022-08-19T14:11:17;13.43;;;7.10;;
59008;SDS011;44794;42.652;23.318;2022-08-19T14:13:43;11.32;;;6.10;;
59008;SDS011;44794;42.652;23.318;2022-08-19T14:16:09;12.05;;;6.47;;
59008;SDS011;44794;42.652;23.318;2022-08-19T14:18:36;8.63;;;6.70;;
59008;SDS011;44794;42.652;23.318;2022-08-19T14:21:02;10.23;;;6.63;;
59008;SDS011;44794;42.652;23.318;2022-08-19T14:23:29;9.30;;;7.00;;
59008;SDS011;44794;42.652;23.318;2022-08-19T14:26:02;10.07;;;6.93;;
59008;SDS011;44794;42.652;23.318;2022-08-19T14:28:32;12.40;;;6.78;;
59008;SDS011;44794;42.652;23.318;2022-08-19T14:30:58;9.77;;;6.30;;
59008;SDS011;44794;42.652;23.318;2022-08-19T14:33:24;12.57;;;6.97;;
59008;SDS011;44794;42.652;23.318;2022-08-19T14:35:49;11.35;;;6.80;;
59008;SDS011;44794;42.652;23.318;2022-08-19T14:38:16;9.50;;;7.03;;